Time;durP1;ratioP1;P1;durP2;ratioP2;P2;SDS_P1;SDS_P2;PMS_P1;PMS_P2;Temp;Humidity;BMP_temperature;BMP_pressure;BME280_temperature;BME280_humidity;BME280_pressure;Samples;Min_cycle;Max_cycle;Signal;HPM_P1;HPM_P2
2023/06/02 00:01:03;;;;;;;10.00;6.85;;;;;;;17.11;100.00;101313.56;5073055;28;20403;-70
2023/06/02 00:03:32;;;;;;;9.57;7.35;;;;;;;17.61;100.00;101393.38;5073577;28;20056;-70
2023/06/02 00:05:59;;;;;;;12.77;7.20;;;;;;;17.31;100.00;101346.34;5054877;28;20503;-70
2023/06/02 00:08:26;;;;;;;8.68;6.80;;;;;;;17.41;100.00;101345.13;5073192;28;20074;-70
2023/06/02 00:10:51;;;;;;;10.82;7.93;;;;;;;17.15;100.00;101330.56;5055157;28;20033;-70
2023/06/02 00:13:18;;;;;;;12.45;7.85;;;;;;;17.31;100.00;101344.59;5055274;28;20113;-70
2023/06/02 00:15:43;;;;;;;12.73;7.93;;;;;;;17.37;100.00;101368.44;5072456;28;20479;-69
2023/06/02 00:18:09;;;;;;;10.95;8.93;;;;;;;16.83;100.00;101311.97;5072940;28;20123;-70
2023/06/02 00:20:34;;;;;;;11.63;9.88;;;;;;;16.91;100.00;101317.69;5073342;28;20093;-69
2023/06/02 00:23:02;;;;;;;14.55;10.43;;;;;;;16.92;100.00;101271.38;5073245;28;20116;-70
2023/06/02 00:25:29;;;;;;;13.85;10.00;;;;;;;17.17;100.00;101304.84;5072661;28;20028;-69
2023/06/02 00:27:54;;;;;;;14.57;9.65;;;;;;;16.85;100.00;101295.63;5054834;28;20033;-70
2023/06/02 00:30:20;;;;;;;12.07;8.60;;;;;;;16.86;100.00;101302.41;5072879;28;20028;-70
2023/06/02 00:32:45;;;;;;;10.10;8.10;;;;;;;16.80;100.00;101325.75;5054768;28;20033;-69
2023/06/02 00:35:10;;;;;;;13.15;8.27;;;;;;;16.56;100.00;101282.84;5072663;28;20103;-70
2023/06/02 00:37:36;;;;;;;10.77;7.30;;;;;;;17.00;100.00;101307.94;5071741;28;20532;-70
2023/06/02 00:40:02;;;;;;;11.95;7.60;;;;;;;16.93;100.00;101282.50;5072356;28;20038;-69
2023/06/02 00:42:28;;;;;;;11.35;7.28;;;;;;;16.83;100.00;101286.28;5054835;28;20028;-69
2023/06/02 00:44:53;;;;;;;10.38;7.30;;;;;;;16.91;100.00;101303.13;5071829;28;20506;-69
2023/06/02 00:47:18;;;;;;;9.82;6.93;;;;;;;16.88;100.00;101343.47;5071233;28;20024;-69
2023/06/02 00:49:44;;;;;;;11.77;7.80;;;;;;;16.76;100.00;101356.69;5072249;28;20189;-69
2023/06/02 00:52:10;;;;;;;11.38;7.60;;;;;;;16.78;100.00;101311.25;5072563;28;20024;-69
2023/06/02 00:54:36;;;;;;;10.23;7.00;;;;;;;16.74;100.00;101325.94;5054443;28;20032;-69
2023/06/02 00:57:01;;;;;;;9.05;6.80;;;;;;;16.61;100.00;101355.47;5072255;28;20143;-69
2023/06/02 00:59:27;;;;;;;8.43;7.03;;;;;;;17.05;100.00;101378.03;5072233;28;20450;-69
2023/06/02 01:02:00;;;;;;;8.73;6.68;;;;;;;17.15;100.00;101384.53;5072126;28;20407;-70
2023/06/02 01:04:26;;;;;;;10.27;7.32;;;;;;;16.58;100.00;101311.06;5071540;28;20103;-69
2023/06/02 01:06:52;;;;;;;9.52;6.75;;;;;;;16.90;100.00;101349.41;5072005;28;20138;-69
2023/06/02 01:09:19;;;;;;;8.73;7.00;;;;;;;16.60;100.00;101340.94;5072070;28;20039;-70
2023/06/02 01:11:46;;;;;;;10.18;7.95;;;;;;;16.39;100.00;101364.66;5072139;28;20028;-71
2023/06/02 01:14:13;;;;;;;10.35;6.75;;;;;;;17.02;100.00;101420.97;5071469;28;20078;-70
2023/06/02 01:16:39;;;;;;;9.57;7.47;;;;;;;16.81;100.00;101414.78;5054125;28;20063;-70
2023/06/02 01:19:06;;;;;;;10.07;7.15;;;;;;;16.64;100.00;101360.50;5054027;28;20426;-70
2023/06/02 01:21:37;;;;;;;8.93;6.95;;;;;;;16.72;100.00;101376.50;5072062;28;20047;-70
2023/06/02 01:24:03;;;;;;;9.02;7.03;;;;;;;16.93;100.00;101370.72;5070649;28;20115;-70
2023/06/02 01:26:34;;;;;;;8.68;7.40;;;;;;;16.37;100.00;101363.88;5071520;28;20060;-71
2023/06/02 01:29:04;;;;;;;11.45;6.90;;;;;;;16.25;100.00;101320.59;5072113;28;20059;-69
2023/06/02 01:31:34;;;;;;;8.55;6.93;;;;;;;16.76;100.00;101413.22;5070482;28;20055;-70
2023/06/02 01:34:13;;;;;;;8.48;6.97;;;;;;;16.55;100.00;101360.78;5071379;28;20035;-70
2023/06/02 01:36:42;;;;;;;10.00;7.28;;;;;;;16.66;100.00;101435.75;5071924;28;20037;-70
2023/06/02 01:39:09;;;;;;;7.70;6.78;;;;;;;16.54;100.00;101366.78;5070951;28;20067;-69
2023/06/02 01:41:40;;;;;;;7.85;7.05;;;;;;;16.76;100.00;101423.47;5053658;28;20119;-69
2023/06/02 01:44:06;;;;;;;8.95;7.43;;;;;;;16.64;100.00;101383.59;5071692;28;20040;-70
2023/06/02 01:46:32;;;;;;;10.40;7.05;;;;;;;16.75;100.00;101414.13;5070998;28;20035;-70
2023/06/02 01:48:58;;;;;;;9.48;7.57;;;;;;;16.10;100.00;101336.44;5069913;28;20540;-70
2023/06/02 01:51:24;;;;;;;9.32;7.25;;;;;;;16.72;100.00;101416.78;5071195;28;20032;-72
2023/06/02 01:53:50;;;;;;;9.65;7.45;;;;;;;16.85;100.00;101418.94;5069344;28;20470;-70
2023/06/02 01:56:15;;;;;;;13.13;7.70;;;;;;;16.62;100.00;101428.22;5070634;28;20071;-70
2023/06/02 01:58:41;;;;;;;10.38;7.43;;;;;;;16.89;100.00;101393.97;5070851;28;20098;-69
2023/06/02 02:01:06;;;;;;;11.38;6.82;;;;;;;17.04;100.00;101445.75;5071138;28;20029;-69
2023/06/02 02:03:32;;;;;;;9.02;7.45;;;;;;;16.97;100.00;101444.25;5053146;28;20070;-69
2023/06/02 02:05:58;;;;;;;9.60;7.68;;;;;;;16.79;100.00;101451.66;5052660;28;20119;-71
2023/06/02 02:08:24;;;;;;;9.70;8.38;;;;;;;16.87;100.00;101455.69;5071445;28;20086;-70
2023/06/02 02:10:49;;;;;;;13.45;8.50;;;;;;;16.69;100.00;101432.28;5071800;28;20033;-70
2023/06/02 02:13:14;;;;;;;12.50;8.20;;;;;;;16.16;100.00;101382.47;5070790;28;20135;-70
2023/06/02 02:15:40;;;;;;;10.10;7.65;;;;;;;16.56;100.00;101444.63;5070394;28;20491;-73
2023/06/02 02:18:06;;;;;;;12.35;8.30;;;;;;;16.52;100.00;101432.75;5052415;28;20031;-69
2023/06/02 02:20:32;;;;;;;11.48;8.23;;;;;;;16.48;100.00;101431.13;5070945;28;20044;-70
2023/06/02 02:22:57;;;;;;;12.77;8.63;;;;;;;16.05;100.00;101394.72;5069724;28;20605;-70
2023/06/02 02:25:23;;;;;;;11.50;8.35;;;;;;;16.35;100.00;101435.78;5070720;28;20033;-69
2023/06/02 02:27:49;;;;;;;12.50;8.07;;;;;;;16.29;100.00;101442.81;5071068;28;20387;-69
2023/06/02 02:30:14;;;;;;;10.70;8.07;;;;;;;16.10;100.00;101426.25;5070874;28;20036;-76
2023/06/02 02:32:43;;;;;;;12.23;8.30;;;;;;;16.08;100.00;101399.78;5051822;28;20537;-70
2023/06/02 02:35:09;;;;;;;13.55;8.32;;;;;;;16.29;100.00;101423.13;5051830;28;20391;-69
2023/06/02 02:37:35;;;;;;;10.70;8.35;;;;;;;16.20;100.00;101441.34;5069575;28;20047;-68
2023/06/02 02:40:01;;;;;;;14.63;7.70;;;;;;;16.03;100.00;101442.69;5052295;28;20037;-70
2023/06/02 02:42:26;;;;;;;16.63;8.48;;;;;;;15.70;100.00;101389.72;5070347;28;20036;-70
2023/06/02 02:44:51;;;;;;;12.65;8.75;;;;;;;15.77;100.00;101399.75;5052454;28;20032;-70
2023/06/02 02:47:17;;;;;;;12.25;9.38;;;;;;;16.23;100.00;101445.56;5070437;28;20483;-71
2023/06/02 02:49:42;;;;;;;20.98;15.23;;;;;;;15.73;100.00;101376.81;5070851;28;20388;-70
2023/06/02 02:52:08;;;;;;;35.97;32.28;;;;;;;15.72;100.00;101403.34;5070846;28;20513;-71
2023/06/02 02:54:33;;;;;;;35.70;31.40;;;;;;;15.66;100.00;101426.56;5070186;28;20029;-70
2023/06/02 02:56:58;;;;;;;24.83;19.83;;;;;;;15.07;100.00;101369.06;5052458;28;20029;-70
2023/06/02 02:59:25;;;;;;;18.23;15.32;;;;;;;15.26;100.00;101376.28;5069410;28;20360;-72
2023/06/02 03:01:51;;;;;;;20.15;13.00;;;;;;;15.35;100.00;101391.41;5070877;28;20033;-71
2023/06/02 03:04:18;;;;;;;14.60;10.23;;;;;;;15.80;100.00;101437.31;5070422;28;20039;-70
2023/06/02 03:06:48;;;;;;;13.15;9.88;;;;;;;15.22;100.00;101381.50;5070704;28;20055;-70
2023/06/02 03:09:14;;;;;;;16.95;12.13;;;;;;;15.94;100.00;101433.53;5070420;28;20029;-70
2023/06/02 03:11:40;;;;;;;19.58;12.25;;;;;;;15.45;100.00;101417.72;5068280;28;20452;-71
2023/06/02 03:14:05;;;;;;;16.67;11.50;;;;;;;16.12;100.00;101474.06;5069496;28;20068;-71
2023/06/02 03:16:31;;;;;;;14.18;9.70;;;;;;;15.79;100.00;101456.13;5070278;28;20032;-70
2023/06/02 03:18:57;;;;;;;17.77;9.55;;;;;;;15.86;100.00;101465.38;5051870;28;20024;-70
2023/06/02 03:21:23;;;;;;;11.48;8.10;;;;;;;15.44;100.00;101447.63;5070079;28;20086;-73
2023/06/02 03:23:49;;;;;;;12.95;8.50;;;;;;;15.51;100.00;101438.03;5052448;28;20032;-76
2023/06/02 03:26:16;;;;;;;11.30;8.43;;;;;;;15.92;100.00;101460.94;5071374;28;20032;-71
2023/06/02 03:28:42;;;;;;;12.68;8.23;;;;;;;15.75;100.00;101457.13;5074247;28;20075;-70
2023/06/02 03:31:08;;;;;;;12.30;8.02;;;;;;;15.84;100.00;101405.56;5055758;28;20522;-70
2023/06/02 03:33:34;;;;;;;10.68;8.10;;;;;;;15.77;100.00;101398.94;5074252;28;20032;-70
2023/06/02 03:35:59;;;;;;;10.05;8.05;;;;;;;15.98;100.00;101393.22;5056084;28;20055;-70
2023/06/02 03:38:27;;;;;;;12.05;8.38;;;;;;;15.89;100.00;101419.97;5056238;28;20185;-69
2023/06/02 03:40:58;;;;;;;11.32;8.32;;;;;;;15.51;100.00;101331.22;5073603;28;20040;-70
2023/06/02 03:43:24;;;;;;;11.63;8.07;;;;;;;16.17;100.00;101425.19;5055131;28;20029;-71
2023/06/02 03:45:49;;;;;;;11.27;8.48;;;;;;;16.32;100.00;101428.16;5056366;28;20032;-72
2023/06/02 03:48:15;;;;;;;11.95;8.65;;;;;;;16.35;100.00;101438.38;5072578;28;20069;-72
2023/06/02 03:50:41;;;;;;;12.23;8.50;;;;;;;16.41;100.00;101397.13;5073849;28;20043;-71
2023/06/02 03:53:06;;;;;;;11.88;8.55;;;;;;;16.65;100.00;101416.13;5055225;28;20088;-71
2023/06/02 03:55:32;;;;;;;17.55;8.88;;;;;;;16.51;100.00;101397.72;5072266;28;20201;-71
2023/06/02 03:57:58;;;;;;;11.77;8.63;;;;;;;16.21;100.00;101337.81;5073082;28;20551;-72
2023/06/02 04:00:25;;;;;;;15.13;8.80;;;;;;;16.69;100.00;101420.28;5073803;28;20120;-70
2023/06/02 04:02:50;;;;;;;14.85;8.80;;;;;;;16.12;100.00;101361.16;5073695;28;20113;-72
2023/06/02 04:05:16;;;;;;;13.30;9.48;;;;;;;16.62;100.00;101402.53;5074000;28;20136;-72
2023/06/02 04:07:41;;;;;;;13.77;9.43;;;;;;;16.28;100.00;101351.31;5055312;28;20039;-71
2023/06/02 04:10:07;;;;;;;14.05;9.13;;;;;;;16.40;100.00;101338.94;5055635;28;20039;-71
2023/06/02 04:12:33;;;;;;;12.52;8.80;;;;;;;17.09;100.00;101384.75;5073313;28;20392;-71
2023/06/02 04:15:00;;;;;;;13.85;8.82;;;;;;;16.98;100.00;101383.41;5073302;28;20028;-71
2023/06/02 04:17:25;;;;;;;14.70;9.70;;;;;;;16.54;100.00;101373.69;5072842;28;20059;-73
2023/06/02 04:19:52;;;;;;;15.73;9.68;;;;;;;17.02;100.00;101387.56;5073542;28;20430;-71
2023/06/02 04:22:19;;;;;;;14.77;9.55;;;;;;;16.99;100.00;101392.81;5073277;28;20032;-72
2023/06/02 04:24:45;;;;;;;17.52;9.35;;;;;;;16.56;100.00;101300.81;5071113;28;20032;-69
2023/06/02 04:27:10;;;;;;;14.50;9.27;;;;;;;17.03;100.00;101328.44;5072564;28;20078;-73
2023/06/02 04:29:37;;;;;;;16.65;9.20;;;;;;;17.65;100.00;101387.22;5072373;28;20024;-68
2023/06/02 04:32:02;;;;;;;17.52;9.80;;;;;;;17.46;100.00;101394.66;5054818;28;20036;-72
2023/06/02 04:34:28;;;;;;;16.08;10.60;;;;;;;17.68;100.00;101394.81;5071422;28;20040;-69
2023/06/02 04:36:53;;;;;;;22.63;12.23;;;;;;;17.80;100.00;101378.97;5072578;28;20028;-72
2023/06/02 04:39:19;;;;;;;23.23;11.77;;;;;;;17.89;100.00;101383.78;5072720;28;21289;-70
2023/06/02 04:41:46;;;;;;;20.33;11.20;;;;;;;17.77;100.00;101358.47;5054182;28;20035;-76
2023/06/02 04:44:11;;;;;;;19.42;10.98;;;;;;;18.13;100.00;101399.19;5068916;28;20467;-71
2023/06/02 04:46:37;;;;;;;17.88;11.80;;;;;;;18.15;100.00;101381.09;5071681;28;20032;-76
2023/06/02 04:49:07;;;;;;;18.70;11.07;;;;;;;17.88;100.00;101366.66;5052708;28;20057;-71
2023/06/02 04:51:33;;;;;;;21.27;10.88;;;;;;;18.21;100.00;101373.16;5053421;28;20044;-71
2023/06/02 04:53:58;;;;;;;17.42;10.82;;;;;;;18.08;100.00;101410.56;5052659;28;20029;-73
2023/06/02 04:56:26;;;;;;;22.20;12.48;;;;;;;18.13;100.00;101358.00;5052533;28;20029;-78
2023/06/02 04:58:52;;;;;;;25.48;11.40;;;;;;;18.15;100.00;101381.09;5053179;28;20419;-72
2023/06/02 05:01:17;;;;;;;24.67;11.07;;;;;;;18.67;100.00;101419.53;5052697;28;20025;-72
2023/06/02 05:03:43;;;;;;;22.13;10.77;;;;;;;18.42;100.00;101361.22;5052733;28;20040;-73
2023/06/02 05:06:08;;;;;;;19.05;10.75;;;;;;;18.99;100.00;101389.91;5034642;28;20091;-73
2023/06/02 05:08:34;;;;;;;21.67;11.65;;;;;;;18.94;100.00;101354.00;5051930;28;20033;-73
2023/06/02 05:10:59;;;;;;;17.25;10.60;;;;;;;18.77;100.00;101379.63;5034007;28;20040;-72
2023/06/02 05:13:27;;;;;;;15.82;9.80;;;;;;;18.96;100.00;101341.88;5034234;28;20037;-74
2023/06/02 05:15:52;;;;;;;20.85;11.00;;;;;;;19.43;100.00;101383.78;5034626;28;20037;-73
2023/06/02 05:18:18;;;;;;;15.52;9.88;;;;;;;19.60;100.00;101390.84;5051913;28;20043;-72
2023/06/02 05:20:44;;;;;;;15.80;9.88;;;;;;;19.64;100.00;101349.34;5052514;28;20105;-73
2023/06/02 05:23:09;;;;;;;16.88;10.25;;;;;;;19.41;100.00;101340.91;5052663;28;20025;-72
2023/06/02 05:25:35;;;;;;;14.23;9.85;;;;;;;20.25;100.00;101375.91;5033967;28;20029;-73
2023/06/02 05:28:00;;;;;;;18.17;9.82;;;;;;;19.32;100.00;101289.66;5034652;28;20025;-73
2023/06/02 05:30:26;;;;;;;14.27;9.75;;;;;;;20.04;100.00;101371.69;5052332;28;20120;-73
2023/06/02 05:32:51;;;;;;;16.27;8.77;;;;;;;20.28;100.00;101349.91;5051871;28;20057;-74
2023/06/02 05:35:17;;;;;;;18.95;9.52;;;;;;;20.03;100.00;101393.22;5034520;28;20128;-73
2023/06/02 05:37:43;;;;;;;16.35;8.63;;;;;;;20.48;100.00;101382.63;5051946;28;20036;-73
2023/06/02 05:40:10;;;;;;;16.00;8.68;;;;;;;21.24;100.00;101392.72;5051532;28;20039;-73
2023/06/02 05:42:35;;;;;;;13.07;8.50;;;;;;;21.08;100.00;101316.78;5051222;28;20043;-73
2023/06/02 05:45:02;;;;;;;15.23;8.55;;;;;;;21.24;100.00;101302.16;5051881;28;20194;-74
2023/06/02 05:47:30;;;;;;;14.13;7.90;;;;;;;20.41;100.00;101252.84;5052034;28;20037;-73
2023/06/02 05:49:55;;;;;;;14.18;7.72;;;;;;;21.29;100.00;101315.72;5050031;28;20032;-74
2023/06/02 05:52:21;;;;;;;11.82;8.07;;;;;;;21.86;100.00;101317.91;5051902;28;20040;-73
2023/06/02 05:54:46;;;;;;;11.18;8.07;;;;;;;21.37;100.00;101261.84;5051631;28;20029;-73
2023/06/02 05:57:11;;;;;;;12.82;8.25;;;;;;;22.37;100.00;101301.28;5033804;28;20087;-73
2023/06/02 05:59:37;;;;;;;14.68;9.20;;;;;;;21.94;100.00;101294.19;5034091;28;20602;-74
2023/06/02 06:02:03;;;;;;;12.45;8.65;;;;;;;21.95;100.00;101234.53;5051522;28;20060;-74
2023/06/02 06:04:28;;;;;;;13.48;8.85;;;;;;;22.56;100.00;101272.59;5051529;28;20029;-73
2023/06/02 06:06:54;;;;;;;8.05;7.25;;;;;;;22.61;100.00;101255.88;5051290;28;20040;-74
2023/06/02 06:09:19;;;;;;;9.35;7.28;;;;;;;22.61;100.00;101250.69;5051844;28;20037;-73
2023/06/02 06:11:44;;;;;;;10.30;6.80;;;;;;;22.02;100.00;101202.19;5050736;28;20029;-74
2023/06/02 06:14:10;;;;;;;10.23;7.57;;;;;;;22.37;100.00;101179.47;5051144;28;20029;-73
2023/06/02 06:16:37;;;;;;;12.07;7.32;;;;;;;22.40;100.00;101154.19;5051633;28;20051;-73
2023/06/02 06:19:03;;;;;;;10.75;7.57;;;;;;;22.27;100.00;101175.72;5051165;28;20032;-73
2023/06/02 06:21:29;;;;;;;11.38;7.50;;;;;;;22.09;100.00;101177.59;5051867;28;20029;-73
2023/06/02 06:23:55;;;;;;;12.02;6.97;;;;;;;23.36;100.00;101157.09;5051402;28;20032;-73
2023/06/02 06:26:20;;;;;;;13.07;7.43;;;;;;;23.33;100.00;101153.84;5051386;28;20025;-73
2023/06/02 06:28:46;;;;;;;10.95;7.28;;;;;;;23.65;100.00;101140.50;5051225;28;20480;-73
2023/06/02 06:31:11;;;;;;;13.20;7.50;;;;;;;23.53;100.00;101099.72;5051132;28;20064;-73
2023/06/02 06:33:37;;;;;;;14.57;7.78;;;;;;;23.31;100.00;101034.53;5051379;28;20036;-73
2023/06/02 06:36:02;;;;;;;13.48;7.53;;;;;;;24.09;100.00;101034.56;5050707;28;20037;-76
2023/06/02 06:38:28;;;;;;;11.60;7.20;;;;;;;23.31;100.00;100946.28;5051180;28;20035;-72
2023/06/02 06:40:53;;;;;;;9.15;7.43;;;;;;;24.32;100.00;100983.59;5050451;28;20041;-72
2023/06/02 06:43:24;;;;;;;13.05;7.57;;;;;;;24.37;100.00;100949.47;5051423;28;20029;-73
2023/06/02 06:45:49;;;;;;;12.80;7.60;;;;;;;24.30;100.00;100904.88;5050901;28;20090;-73
2023/06/02 06:48:15;;;;;;;12.70;7.35;;;;;;;24.29;100.00;100839.97;5050608;28;20033;-77
2023/06/02 06:50:40;;;;;;;10.95;7.50;;;;;;;24.45;100.00;100853.53;5050582;28;20094;-72
2023/06/02 06:53:08;;;;;;;14.68;7.53;;;;;;;24.45;100.00;100880.38;5050905;28;20033;-73
2023/06/02 06:55:33;;;;;;;14.23;7.43;;;;;;;25.05;100.00;100859.53;5050637;28;20040;-72
2023/06/02 06:57:59;;;;;;;13.27;7.32;;;;;;;24.97;100.00;100840.22;5032838;28;20028;-73
2023/06/02 07:00:24;;;;;;;16.67;7.57;;;;;;;25.12;100.00;100795.66;5033803;28;20082;-72
2023/06/02 07:02:51;;;;;;;15.75;7.22;;;;;;;25.06;100.00;100751.88;5054571;28;20032;-72
2023/06/02 07:05:16;;;;;;;20.75;7.85;;;;;;;25.22;100.00;100684.66;5054826;28;20058;-73
2023/06/02 07:07:43;;;;;;;15.25;8.10;;;;;;;24.97;100.00;100668.44;5054914;28;20056;-72
2023/06/02 07:10:08;;;;;;;13.32;7.88;;;;;;;25.25;100.00;100678.41;5054440;28;20051;-73
2023/06/02 07:12:34;;;;;;;12.48;7.60;;;;;;;24.63;100.00;100655.38;5055049;28;20058;-77
2023/06/02 07:15:00;;;;;;;13.77;8.68;;;;;;;25.25;100.00;100692.25;5054683;28;20025;-72
2023/06/02 07:17:25;;;;;;;13.32;8.45;;;;;;;25.38;100.00;100742.44;5036983;28;20040;-73
2023/06/02 07:19:50;;;;;;;13.50;9.32;;;;;;;25.57;100.00;100750.50;5054642;28;20053;-72
2023/06/02 07:22:16;;;;;;;12.73;10.73;;;;;;;23.89;100.00;100647.03;5053926;28;20120;-72
2023/06/02 07:24:43;;;;;;;11.65;9.00;;;;;;;25.91;100.00;100758.31;5054846;28;20405;-72
2023/06/02 07:27:09;;;;;;;9.30;7.72;;;;;;;25.30;100.00;100734.38;5052087;28;20036;-73
2023/06/02 07:29:34;;;;;;;11.32;7.55;;;;;;;25.58;100.00;100701.84;5036269;28;20037;-73
2023/06/02 07:32:00;;;;;;;12.27;7.28;;;;;;;25.15;100.00;100704.31;5054169;28;20456;-72
2023/06/02 07:34:25;;;;;;;13.07;7.47;;;;;;;26.15;100.00;101552.63;5036490;28;20101;-72
2023/06/02 07:36:51;;;;;;;11.88;7.47;;;;;;;26.34;100.00;101707.00;5036042;28;20510;-73
2023/06/02 07:39:17;;;;;;;14.20;7.55;;;;;;;26.32;100.00;102160.28;5053847;28;20029;-72
2023/06/02 07:41:43;;;;;;;12.63;6.97;;;;;;;25.95;100.00;102092.03;5062099;28;20068;-73
2023/06/02 07:44:08;;;;;;;15.27;6.70;;;;;;;26.57;100.00;102008.22;5052078;28;20033;-74
2023/06/02 07:46:48;;;;;;;9.88;6.28;;;;;;;25.69;100.00;101371.56;5053703;28;20546;-72
2023/06/02 07:49:13;;;;;;;9.90;5.93;;;;;;;26.50;100.00;100595.22;5053712;28;20035;-73
2023/06/02 07:51:39;;;;;;;6.85;6.18;;;;;;;25.86;100.00;100169.66;5054535;28;20025;-74
2023/06/02 07:54:05;;;;;;;7.68;5.70;;;;;;;26.30;100.00;99931.88;5053982;28;20044;-74
2023/06/02 07:56:31;;;;;;;12.23;5.95;;;;;;;26.02;100.00;99668.69;5053679;28;20033;-73
2023/06/02 07:58:56;;;;;;;8.45;5.70;;;;;;;26.92;100.00;99534.38;5054218;28;20060;-73
2023/06/02 08:01:22;;;;;;;8.02;5.28;;;;;;;26.27;100.00;99313.38;5054181;28;20072;-73
2023/06/02 08:03:47;;;;;;;8.55;5.63;;;;;;;26.31;100.00;99281.63;5053761;28;20028;-73
2023/06/02 08:06:14;;;;;;;11.80;5.65;;;;;;;25.36;100.00;99257.56;5053678;28;20081;-73
2023/06/02 08:08:40;;;;;;;6.95;5.38;;;;;;;26.66;100.00;99329.28;5053759;28;20021;-76
2023/06/02 08:11:05;;;;;;;9.13;5.22;;;;;;;26.53;100.00;99217.59;5054074;28;20036;-73
2023/06/02 08:13:30;;;;;;;6.90;5.10;;;;;;;26.97;100.00;99171.94;5052515;28;20033;-72
2023/06/02 08:15:57;;;;;;;8.80;5.20;;;;;;;26.19;100.00;99113.47;5036210;28;20087;-72
2023/06/02 08:18:23;;;;;;;13.65;5.10;;;;;;;26.62;100.00;99067.97;5053669;28;20071;-73
2023/06/02 08:20:54;;;;;;;8.48;4.68;;;;;;;26.74;100.00;98985.75;5053717;28;20041;-73
2023/06/02 08:23:20;;;;;;;6.32;4.70;;;;;;;26.65;100.00;98921.53;5035572;28;20549;-73
2023/06/02 08:25:48;;;;;;;6.63;4.97;;;;;;;26.95;100.00;98729.44;5052051;28;20068;-72
2023/06/02 08:28:24;;;;;;;9.10;4.60;;;;;;;26.40;100.00;98502.88;5053332;28;20086;-73
2023/06/02 08:30:51;;;;;;;8.70;5.15;;;;;;;27.58;100.00;98397.25;5053772;28;20072;-73
2023/06/02 08:33:17;;;;;;;7.15;5.35;;;;;;;27.14;100.00;98133.81;5053830;28;20032;-73
2023/06/02 08:35:43;;;;;;;7.63;4.72;;;;;;;26.74;100.00;97994.56;5053322;28;20071;-74
2023/06/02 08:38:09;;;;;;;10.50;5.70;;;;;;;26.40;100.00;97956.25;5034962;28;20119;-73
2023/06/02 08:40:38;;;;;;;9.70;5.07;;;;;;;26.89;100.00;97896.13;5053249;28;20110;-72
2023/06/02 08:43:06;;;;;;;6.97;4.68;;;;;;;26.69;100.00;97844.84;5053485;28;20069;-73
2023/06/02 08:45:34;;;;;;;7.65;4.60;;;;;;;27.86;100.00;97748.28;5053279;28;20537;-73
2023/06/02 08:48:03;;;;;;;8.43;4.97;;;;;;;27.50;100.00;97687.13;5052583;28;20118;-73
2023/06/02 08:50:33;;;;;;;8.20;4.93;;;;;;;26.71;100.00;97650.72;5035040;28;20021;-73
2023/06/02 08:53:03;;;;;;;8.00;4.43;;;;;;;27.45;100.00;97607.59;5052644;28;20044;-72
2023/06/02 08:55:29;;;;;;;8.40;4.60;;;;;;;27.97;100.00;97501.25;5053208;28;20029;-73
2023/06/02 08:57:55;;;;;;;7.22;4.43;;;;;;;27.02;100.00;97592.69;5052829;28;20518;-72
2023/06/02 09:00:20;;;;;;;6.13;4.32;;;;;;;25.81;100.00;97545.44;5053002;28;20029;-73
2023/06/02 09:02:47;;;;;;;8.70;4.60;;;;;;;26.78;100.00;97455.13;5051280;28;20037;-73
2023/06/02 09:05:16;;;;;;;8.65;4.50;;;;;;;27.56;100.00;97243.22;5034753;28;20029;-72
2023/06/02 09:07:43;;;;;;;5.85;4.18;;;;;;;27.58;100.00;97470.97;5052822;28;20029;-73
2023/06/02 09:10:09;;;;;;;5.97;4.22;;;;;;;26.29;100.00;97562.47;5052618;28;20037;-72
2023/06/02 09:12:48;;;;;;;12.57;4.60;;;;;;;27.25;100.00;97731.34;5034550;28;20135;-73
2023/06/02 09:15:13;;;;;;;8.77;4.78;;;;;;;28.43;100.00;97867.69;4339995;28;10000793;-74
2023/06/02 09:17:39;;;;;;;12.07;4.60;;;;;;;27.27;100.00;98124.28;5028169;28;20052;-75
2023/06/02 09:20:11;;;;;;;7.97;4.88;;;;;;;27.08;100.00;98263.28;5013198;28;20045;-72
2023/06/02 09:22:55;;;;;;;6.55;5.03;;;;;;;27.37;100.00;98575.66;5029879;28;20523;-73
2023/06/02 09:25:23;;;;;;;7.32;4.65;;;;;;;27.33;100.00;99219.34;5029726;28;20050;-74
2023/06/02 09:27:52;;;;;;;5.00;4.40;;;;;;;28.10;100.00;99519.25;5028671;28;20034;-72
2023/06/02 09:30:18;;;;;;;5.72;4.70;;;;;;;27.96;100.00;99645.41;5029676;28;20037;-71
2023/06/02 09:33:14;;;;;;;19.30;5.88;;;;;;;28.03;100.00;99693.44;5016059;28;20034;-73
2023/06/02 09:35:44;;;;;;;9.25;4.32;;;;;;;28.20;100.00;99763.94;5012393;28;20037;-71
2023/06/02 09:38:12;;;;;;;7.05;4.55;;;;;;;28.39;100.00;99820.38;5035651;28;20033;-72
2023/06/02 09:40:41;;;;;;;8.68;4.68;;;;;;;28.38;100.00;99852.75;5035620;28;20476;-71
2023/06/02 09:43:15;;;;;;;7.00;4.97;;;;;;;28.83;100.00;99873.31;5025011;28;20036;-71
2023/06/02 09:45:47;;;;;;;5.55;4.50;;;;;;;28.35;100.00;99928.09;5038965;28;20064;-72
2023/06/02 09:48:20;;;;;;;6.20;4.55;;;;;;;27.72;100.00;99930.19;5054891;28;20286;-73
2023/06/02 09:50:45;;;;;;;19.02;5.20;;;;;;;28.37;100.00;99851.09;5051254;28;20028;-72
2023/06/02 09:53:13;;;;;;;12.82;4.88;;;;;;;27.94;100.00;99877.38;5051293;28;20514;-72
2023/06/02 09:55:39;;;;;;;18.80;5.15;;;;;;;28.00;100.00;99913.41;5071641;28;20032;-72
2023/06/02 09:58:06;;;;;;;6.32;5.00;;;;;;;27.67;100.00;99929.84;5070645;28;20041;-71
2023/06/02 10:00:32;;;;;;;6.90;4.82;;;;;;;27.43;100.00;99956.59;5071932;28;20111;-71
2023/06/02 10:03:02;;;;;;;8.68;4.65;;;;;;;28.58;100.00;99929.22;5071494;28;20032;-72
2023/06/02 10:05:28;;;;;;;7.10;4.75;;;;;;;28.66;100.00;99950.97;5071696;28;20024;-71
2023/06/02 10:08:09;;;;;;;5.65;4.43;;;;;;;27.71;100.00;100004.34;5053723;28;20431;-71
2023/06/02 10:10:55;;;;;;;6.45;4.68;;;;;;;28.57;100.00;99972.06;5071259;28;20028;-71
2023/06/02 10:13:51;;;;;;;6.30;4.97;;;;;;;27.82;100.00;99951.81;5053228;28;20036;-71
2023/06/02 10:16:59;;;;;;;8.82;4.78;;;;;;;28.41;100.00;99980.63;5071510;28;20035;-72
2023/06/02 10:19:55;;;;;;;9.60;4.70;;;;;;;29.16;100.00;99971.13;5070982;28;20078;-71
2023/06/02 10:22:45;;;;;;;6.93;4.60;;;;;;;28.33;100.00;99991.06;5071026;28;20025;-72
2023/06/02 10:25:48;;;;;;;6.25;4.43;;;;;;;28.08;100.00;99991.91;5053379;28;21004;-71
2023/06/02 10:28:14;;;;;;;6.50;4.28;;;;;;;28.35;100.00;99935.94;5071490;28;20040;-70
2023/06/02 10:30:40;;;;;;;6.95;4.60;;;;;;;28.18;100.00;99979.53;5070862;28;20142;-71
2023/06/02 10:33:07;;;;;;;7.97;4.60;;;;;;;28.15;100.00;99990.28;5071317;28;20498;-70
2023/06/02 10:35:59;;;;;;;6.35;4.68;;;;;;;28.16;100.00;100007.66;5070514;28;20069;-70
2023/06/02 10:38:38;;;;;;;;;;;;;;;28.35;100.00;99998.75;5068937;28;20041;-70
2023/06/02 10:41:04;;;;;;;6.88;4.50;;;;;;;28.70;100.00;99973.25;5070789;28;20364;-70
2023/06/02 10:43:32;;;;;;;7.00;4.32;;;;;;;28.84;100.00;99970.03;5071079;28;20103;-69
2023/06/02 10:46:23;;;;;;;24.52;5.22;;;;;;;28.15;100.00;100003.38;5070772;28;20032;-70
2023/06/02 10:48:49;;;;;;;9.23;4.60;;;;;;;28.51;100.00;99956.94;5070758;28;20123;-70
2023/06/02 10:51:16;;;;;;;5.97;4.78;;;;;;;28.88;100.00;99968.72;5070886;28;20043;-70
2023/06/02 10:54:04;;;;;;;6.72;4.63;;;;;;;28.17;100.00;99994.41;5070512;28;20133;-72
2023/06/02 10:56:35;;;;;;;5.55;4.43;;;;;;;28.35;100.00;99981.25;5070959;28;20031;-70
2023/06/02 10:59:02;;;;;;;6.35;4.78;;;;;;;28.19;100.00;99976.75;5053172;28;20029;-70
2023/06/02 11:01:51;;;;;;;9.98;4.57;;;;;;;28.56;100.00;99968.66;5053092;28;20029;-70
2023/06/02 11:04:33;;;;;;;8.38;5.20;;;;;;;28.05;100.00;99943.34;5052712;28;20029;-70
2023/06/02 11:07:23;;;;;;;6.05;4.60;;;;;;;28.34;100.00;99965.72;5070803;28;20024;-70
2023/06/02 11:09:54;;;;;;;7.15;4.50;;;;;;;28.25;100.00;99965.69;5070813;28;20111;-70
2023/06/02 11:12:21;;;;;;;7.15;4.80;;;;;;;28.52;100.00;99951.59;5070876;28;20028;-72
2023/06/02 11:15:03;;;;;;;9.93;5.25;;;;;;;28.72;100.00;99950.34;5052414;28;20483;-70
2023/06/02 11:17:32;;;;;;;6.93;4.95;;;;;;;29.05;100.00;99932.94;5070578;28;20060;-70